Time;durP1;ratioP1;P1;durP2;ratioP2;P2;SDS_P1;SDS_P2;PMS_P1;PMS_P2;Temp;Humidity;BMP_temperature;BMP_pressure;BME280_temperature;BME280_humidity;BME280_pressure;Samples;Min_cycle;Max_cycle;Signal;HPM_P1;HPM_P2
2021/01/29 00:01:20;;;;;;;1.67;0.60;;;11.70;99.90;;;;;;5035608;28;20656;-58
2021/01/29 00:03:45;;;;;;;1.70;0.90;;;11.70;99.90;;;;;;5035394;28;20536;-58
2021/01/29 00:06:12;;;;;;;1.20;0.77;;;11.70;99.90;;;;;;5035896;28;20204;-59
2021/01/29 00:08:37;;;;;;;2.13;0.80;;;11.70;99.90;;;;;;5036198;28;20182;-58
2021/01/29 00:11:04;;;;;;;1.63;0.90;;;11.60;99.90;;;;;;5035773;28;20466;-58
2021/01/29 00:13:30;;;;;;;1.40;1.00;;;11.50;99.90;;;;;;5035956;28;20224;-56
2021/01/29 00:15:56;;;;;;;1.37;1.00;;;11.50;99.90;;;;;;5036329;28;20424;-57
2021/01/29 00:18:22;;;;;;;1.33;1.10;;;11.50;99.90;;;;;;5036080;28;20550;-54
2021/01/29 00:20:48;;;;;;;1.07;0.80;;;11.50;99.90;;;;;;5035813;28;20462;-58
2021/01/29 00:23:16;;;;;;;1.00;0.80;;;11.30;99.90;;;;;;5035944;28;20775;-57
2021/01/29 00:25:50;;;;;;;1.67;0.80;;;11.10;99.90;;;;;;5035869;28;20830;-57
2021/01/29 00:28:16;;;;;;;1.10;0.90;;;11.20;99.90;;;;;;5035940;28;20477;-52
2021/01/29 00:30:43;;;;;;;1.60;0.80;;;11.20;99.90;;;;;;5034905;28;20515;-58
2021/01/29 00:33:11;;;;;;;1.87;0.90;;;11.20;99.90;;;;;;5035539;28;20417;-55
2021/01/29 00:35:37;;;;;;;1.13;1.00;;;11.10;99.90;;;;;;5035631;28;20878;-57
2021/01/29 00:38:05;;;;;;;1.37;0.97;;;11.00;99.90;;;;;;5034264;28;20416;-58
2021/01/29 00:40:30;;;;;;;0.97;0.60;;;10.90;99.90;;;;;;5019849;28;20210;-54
2021/01/29 00:42:56;;;;;;;0.77;0.60;;;10.80;99.90;;;;;;5015935;28;20755;-54
2021/01/29 00:45:24;;;;;;;1.00;0.70;;;10.70;99.90;;;;;;5046786;28;20178;-54
2021/01/29 00:47:50;;;;;;;0.77;0.70;;;10.80;99.90;;;;;;5056086;28;20427;-56
2021/01/29 00:50:16;;;;;;;0.70;0.60;;;11.00;99.90;;;;;;5055264;28;20457;-56
2021/01/29 00:52:41;;;;;;;0.80;0.70;;;10.80;99.90;;;;;;5055613;28;20650;-58
2021/01/29 00:55:08;;;;;;;1.30;0.83;;;10.70;99.90;;;;;;5055773;28;20647;-57
2021/01/29 00:57:34;;;;;;;1.73;1.00;;;10.80;99.90;;;;;;5039341;28;20206;-58
2021/01/29 01:00:00;;;;;;;1.40;0.83;;;11.00;99.90;;;;;;5035294;28;20575;-58
2021/01/29 01:02:25;;;;;;;1.20;0.80;;;10.90;99.90;;;;;;5034603;28;20254;-56
2021/01/29 01:04:51;;;;;;;0.87;0.87;;;11.00;99.90;;;;;;5035340;28;20190;-57
2021/01/29 01:07:17;;;;;;;1.20;0.70;;;10.90;99.90;;;;;;5035266;28;20164;-54
2021/01/29 01:09:46;;;;;;;1.60;0.70;;;10.90;99.90;;;;;;5035052;28;20213;-57
2021/01/29 01:12:12;;;;;;;2.13;0.90;;;10.90;99.90;;;;;;5034927;28;20680;-59
2021/01/29 01:14:38;;;;;;;0.80;0.67;;;10.90;99.90;;;;;;5035221;28;20454;-58
2021/01/29 01:17:05;;;;;;;1.90;1.00;;;10.90;99.90;;;;;;5034545;28;20769;-57
2021/01/29 01:19:31;;;;;;;1.10;1.00;;;11.00;99.90;;;;;;5034944;28;20254;-56
2021/01/29 01:21:56;;;;;;;1.37;0.90;;;11.10;99.90;;;;;;5035042;28;20411;-58
2021/01/29 01:24:22;;;;;;;1.90;0.90;;;11.20;99.90;;;;;;5034835;28;20407;-56
2021/01/29 01:26:48;;;;;;;1.10;0.90;;;11.30;99.90;;;;;;5036856;28;20199;-58
2021/01/29 01:29:13;;;;;;;1.00;0.90;;;11.40;99.90;;;;;;5034789;28;20207;-56
2021/01/29 01:31:39;;;;;;;1.10;0.67;;;11.30;99.90;;;;;;5033931;28;20188;-57
2021/01/29 01:34:04;;;;;;;1.30;0.80;;;11.40;99.90;;;;;;5036261;28;20221;-57
2021/01/29 01:36:30;;;;;;;1.00;0.73;;;11.40;99.90;;;;;;5034401;28;20194;-57
2021/01/29 01:38:55;;;;;;;1.10;1.00;;;11.40;99.90;;;;;;5034647;28;20167;-57
2021/01/29 01:41:21;;;;;;;2.17;1.10;;;11.40;99.90;;;;;;5034270;28;20566;-57
2021/01/29 01:43:46;;;;;;;0.90;0.80;;;11.30;99.90;;;;;;5034543;28;20171;-57
2021/01/29 01:46:17;;;;;;;1.00;0.90;;;11.30;99.90;;;;;;5028405;28;20178;-57
2021/01/29 01:48:58;;;;;;;1.43;1.10;;;11.20;99.90;;;;;;5015180;28;20609;-55
2021/01/29 01:51:33;;;;;;;0.90;0.80;;;11.10;99.90;;;;;;5014358;28;20430;-58
2021/01/29 01:54:02;;;;;;;1.97;1.10;;;11.20;99.90;;;;;;5014445;28;20898;-58
2021/01/29 01:56:44;;;;;;;1.53;1.00;;;11.20;99.90;;;;;;5014710;28;20908;-57
2021/01/29 01:59:17;;;;;;;1.10;1.00;;;11.10;99.90;;;;;;5014540;28;20403;-57
2021/01/29 02:01:44;;;;;;;1.33;1.00;;;11.10;99.90;;;;;;5014299;28;20922;-56
2021/01/29 02:04:13;;;;;;;2.60;0.90;;;11.00;99.90;;;;;;5014849;28;20430;-57
2021/01/29 02:07:03;;;;;;;1.10;0.93;;;11.00;99.90;;;;;;5014535;28;20430;-56
2021/01/29 02:09:30;;;;;;;0.90;0.80;;;11.10;99.90;;;;;;5014312;28;20437;-57
2021/01/29 02:11:56;;;;;;;1.30;1.10;;;11.10;99.90;;;;;;5014510;28;20912;-58
2021/01/29 02:14:21;;;;;;;2.03;1.13;;;11.00;99.90;;;;;;5014000;28;20499;-57
2021/01/29 02:17:15;;;;;;;1.20;1.03;;;10.80;99.90;;;;;;5013614;28;20585;-58
2021/01/29 02:20:02;;;;;;;0.90;0.80;;;10.60;99.90;;;;;;4977906;28;20289;-58
2021/01/29 02:22:59;;;;;;;1.20;0.90;;;10.60;99.90;;;;;;5013939;28;20440;-58
2021/01/29 02:25:40;;;;;;;1.03;0.93;;;10.50;99.90;;;;;;4980175;28;20451;-57
2021/01/29 02:28:19;;;;;;;1.00;0.70;;;10.60;99.90;;;;;;5014356;28;20396;-57
2021/01/29 02:31:17;;;;;;;1.70;0.83;;;10.60;99.90;;;;;;5013699;28;20990;-58
2021/01/29 02:34:10;;;;;;;1.27;0.90;;;10.50;99.90;;;;;;5039070;28;20409;-59
2021/01/29 02:36:57;;;;;;;0.70;0.70;;;10.50;99.90;;;;;;5035307;28;20832;-58
2021/01/29 02:40:01;;;;;;;0.80;0.70;;;10.40;99.90;;;;;;5053405;28;20408;-59
2021/01/29 02:42:43;;;;;;;2.30;1.00;;;10.50;99.90;;;;;;5053610;28;20401;-55
2021/01/29 02:45:21;;;;;;;1.47;0.80;;;10.60;99.90;;;;;;5053646;28;20400;-55
2021/01/29 02:48:10;;;;;;;1.67;0.90;;;10.50;99.90;;;;;;5034929;28;20923;-57
2021/01/29 02:50:42;;;;;;;1.43;0.80;;;10.40;99.90;;;;;;5033164;28;20464;-59
2021/01/29 02:53:20;;;;;;;1.37;1.00;;;10.50;99.90;;;;;;5033600;28;20410;-58
2021/01/29 02:56:28;;;;;;;1.23;0.80;;;10.60;99.90;;;;;;5033662;28;20402;-59
2021/01/29 02:59:15;;;;;;;0.90;0.73;;;10.60;99.90;;;;;;5029472;28;20831;-56
2021/01/29 03:02:01;;;;;;;1.37;0.60;;;10.50;99.90;;;;;;5033149;28;20429;-58
2021/01/29 03:04:40;;;;;;;0.70;0.60;;;10.60;99.90;;;;;;5033482;28;20379;-57
2021/01/29 03:07:21;;;;;;;1.57;0.73;;;10.80;99.90;;;;;;5033516;28;20393;-59
2021/01/29 03:10:00;;;;;;;1.03;0.93;;;10.70;99.90;;;;;;5033469;28;20874;-57
2021/01/29 03:12:41;;;;;;;0.87;0.70;;;10.70;99.90;;;;;;5015979;28;20904;-58
2021/01/29 03:15:17;;;;;;;0.70;0.60;;;10.60;99.90;;;;;;5033420;28;20390;-59
2021/01/29 03:17:58;;;;;;;1.17;0.67;;;10.60;99.90;;;;;;5033031;28;20410;-59
2021/01/29 03:20:32;;;;;;;0.77;0.50;;;10.80;99.90;;;;;;5033689;28;20460;-58
2021/01/29 03:23:07;;;;;;;1.03;0.60;;;10.80;99.90;;;;;;5034396;28;20424;-58
2021/01/29 03:25:36;;;;;;;0.63;0.53;;;10.70;99.90;;;;;;5033614;28;20401;-59
2021/01/29 03:28:08;;;;;;;0.70;0.60;;;10.70;99.90;;;;;;5033191;28;20435;-58
2021/01/29 03:30:37;;;;;;;0.80;0.60;;;10.80;99.90;;;;;;5035150;28;20493;-58
2021/01/29 03:33:06;;;;;;;0.90;0.63;;;10.70;99.90;;;;;;5035724;28;20489;-59
2021/01/29 03:35:39;;;;;;;0.80;0.60;;;10.80;99.90;;;;;;5033237;28;20413;-57
2021/01/29 03:38:22;;;;;;;1.03;0.90;;;11.10;99.90;;;;;;5048060;28;20792;-59
2021/01/29 03:40:59;;;;;;;0.70;0.70;;;11.10;99.90;;;;;;5053220;28;20430;-58
2021/01/29 03:43:36;;;;;;;0.70;0.60;;;11.00;99.90;;;;;;5053122;28;20405;-59
2021/01/29 03:46:22;;;;;;;0.90;0.60;;;11.00;99.90;;;;;;5049349;28;20413;-58
2021/01/29 03:49:27;;;;;;;0.70;0.50;;;10.90;99.90;;;;;;5037765;28;20412;-59
2021/01/29 03:52:11;;;;;;;0.90;0.60;;;10.80;99.90;;;;;;5056559;28;20896;-57
2021/01/29 03:54:55;;;;;;;0.80;0.70;;;10.80;99.90;;;;;;5056454;28;20387;-56
2021/01/29 03:57:45;;;;;;;1.00;0.60;;;10.80;99.90;;;;;;5057210;28;20386;-59
2021/01/29 04:00:22;;;;;;;1.97;0.80;;;11.00;99.90;;;;;;5056698;28;20414;-58
2021/01/29 04:03:16;;;;;;;0.70;0.50;;;10.90;99.90;;;;;;5056196;28;20438;-57
2021/01/29 04:06:10;;;;;;;1.10;0.67;;;10.80;99.90;;;;;;5056817;28;20398;-58
2021/01/29 04:08:44;;;;;;;1.03;0.87;;;10.90;99.90;;;;;;5053791;28;20401;-56
2021/01/29 04:11:18;;;;;;;1.33;0.70;;;10.80;99.90;;;;;;5038093;28;20464;-55
2021/01/29 04:13:47;;;;;;;0.80;0.60;;;10.90;99.90;;;;;;5056185;28;20459;-58
2021/01/29 04:16:21;;;;;;;0.83;0.60;;;10.80;99.90;;;;;;5050852;28;20414;-58
2021/01/29 04:18:54;;;;;;;1.47;0.50;;;10.90;99.90;;;;;;5036260;28;20471;-59
2021/01/29 04:21:27;;;;;;;0.60;0.50;;;11.00;99.90;;;;;;5035945;28;20449;-57
2021/01/29 04:24:15;;;;;;;2.40;0.60;;;11.10;99.90;;;;;;5036168;28;20412;-58
2021/01/29 04:26:56;;;;;;;0.80;0.60;;;11.30;99.90;;;;;;5050464;28;20425;-59
2021/01/29 04:29:32;;;;;;;0.90;0.53;;;11.30;99.90;;;;;;5055694;28;20442;-54
2021/01/29 04:32:02;;;;;;;0.70;0.57;;;11.10;99.90;;;;;;5055329;28;20872;-57
2021/01/29 04:34:31;;;;;;;0.70;0.50;;;10.90;99.90;;;;;;5055770;28;20913;-56
2021/01/29 04:37:02;;;;;;;0.70;0.43;;;10.80;99.90;;;;;;5055857;28;20484;-56
2021/01/29 04:39:38;;;;;;;0.63;0.50;;;10.80;99.90;;;;;;5055877;28;20758;-58
2021/01/29 04:42:39;;;;;;;1.10;0.60;;;10.60;99.90;;;;;;5055373;28;20901;-57
2021/01/29 04:45:16;;;;;;;1.10;0.80;;;10.70;99.90;;;;;;5044968;28;20421;-58
2021/01/29 04:47:46;;;;;;;0.80;0.73;;;10.70;99.90;;;;;;5038034;28;20969;-55
2021/01/29 04:50:34;;;;;;;0.70;0.60;;;10.70;99.90;;;;;;5035937;28;20481;-56
2021/01/29 04:53:18;;;;;;;0.80;0.60;;;10.70;99.90;;;;;;5035479;28;20386;-58
2021/01/29 04:56:19;;;;;;;0.70;0.50;;;10.50;99.90;;;;;;5035488;28;20876;-57
2021/01/29 04:59:23;;;;;;;1.10;0.60;;;10.40;99.90;;;;;;5035807;28;20390;-59
2021/01/29 05:02:03;;;;;;;1.10;0.60;;;10.50;99.90;;;;;;5034232;28;20802;-58
2021/01/29 05:05:06;;;;;;;0.87;0.50;;;10.40;99.90;;;;;;5035583;28;20824;-57
2021/01/29 05:07:50;;;;;;;0.90;0.50;;;10.20;99.90;;;;;;5034922;28;20400;-56
2021/01/29 05:10:23;;;;;;;1.07;0.50;;;10.20;99.90;;;;;;5034569;28;20513;-57
2021/01/29 05:13:17;;;;;;;0.70;0.60;;;10.20;99.90;;;;;;5035418;28;20741;-59
2021/01/29 05:16:05;;;;;;;2.30;0.60;;;10.40;99.90;;;;;;5035003;28;20386;-59
2021/01/29 05:18:43;;;;;;;1.10;0.60;;;10.50;99.90;;;;;;5034366;28;20383;-57
2021/01/29 05:21:25;;;;;;;1.00;0.50;;;10.40;99.90;;;;;;5037159;28;20436;-59
2021/01/29 05:23:53;;;;;;;1.03;0.50;;;10.40;99.90;;;;;;5035177;28;20749;-59
2021/01/29 05:26:43;;;;;;;4.50;0.50;;;10.40;99.90;;;;;;5046213;28;20413;-57
2021/01/29 05:29:43;;;;;;;0.90;0.50;;;10.40;99.90;;;;;;5054872;28;20822;-58
2021/01/29 05:32:35;;;;;;;0.70;0.50;;;10.40;99.90;;;;;;5054329;28;20402;-58
2021/01/29 05:35:25;;;;;;;1.33;0.60;;;10.40;99.90;;;;;;5055514;28;20936;-58
2021/01/29 05:38:29;;;;;;;0.70;0.50;;;10.30;99.90;;;;;;5054545;28;20510;-58
2021/01/29 05:41:00;;;;;;;1.37;0.60;;;10.30;99.90;;;;;;5054489;28;20420;-56
2021/01/29 05:43:47;;;;;;;0.60;0.50;;;10.40;99.90;;;;;;5054657;28;20936;-59
2021/01/29 05:46:37;;;;;;;1.43;0.83;;;10.30;99.90;;;;;;5049719;28;20458;-58
2021/01/29 05:49:20;;;;;;;1.00;0.60;;;10.20;99.90;;;;;;5034634;28;20396;-57
2021/01/29 05:52:14;;;;;;;1.30;0.70;;;10.30;99.90;;;;;;5034714;28;20459;-55
2021/01/29 05:55:08;;;;;;;1.57;0.60;;;10.30;99.90;;;;;;5034505;28;20929;-58
2021/01/29 05:57:55;;;;;;;0.90;0.50;;;10.20;99.90;;;;;;5034711;28;20377;-55
2021/01/29 06:00:35;;;;;;;1.63;0.60;;;10.00;99.90;;;;;;5034316;28;20973;-58
2021/01/29 06:03:18;;;;;;;0.80;0.50;;;10.00;99.90;;;;;;5034261;28;20921;-58
2021/01/29 06:06:12;;;;;;;0.70;0.50;;;9.90;99.90;;;;;;5034077;28;20400;-56
2021/01/29 06:08:47;;;;;;;1.33;0.50;;;9.70;99.90;;;;;;5034115;28;20902;-54
2021/01/29 06:11:46;;;;;;;0.80;0.50;;;9.80;99.90;;;;;;5034088;28;20456;-53
2021/01/29 06:14:53;;;;;;;0.80;0.60;;;9.80;99.90;;;;;;5034562;28;20394;-57
2021/01/29 06:17:46;;;;;;;0.80;0.80;;;10.00;99.90;;;;;;5033557;28;20401;-58
2021/01/29 06:20:40;;;;;;;0.97;0.87;;;10.00;99.90;;;;;;5033683;28;20606;-54
2021/01/29 06:23:39;;;;;;;1.00;0.70;;;10.10;99.90;;;;;;5033681;28;20428;-57
2021/01/29 06:26:26;;;;;;;1.30;0.80;;;9.90;99.90;;;;;;5038036;28;20409;-58
2021/01/29 06:29:27;;;;;;;2.17;1.03;;;10.10;99.90;;;;;;5034224;28;20799;-59
2021/01/29 06:32:29;;;;;;;1.77;0.93;;;10.20;99.90;;;;;;5014639;28;20429;-60
2021/01/29 06:35:27;;;;;;;1.10;0.90;;;10.10;99.90;;;;;;5015339;28;20421;-59
2021/01/29 06:38:14;;;;;;;1.43;0.80;;;10.00;99.90;;;;;;5015750;28;20379;-60
2021/01/29 06:40:45;;;;;;;1.30;0.97;;;10.00;99.90;;;;;;5015556;28;20421;-58
2021/01/29 06:43:29;;;;;;;1.03;0.93;;;10.00;99.90;;;;;;5046841;28;20419;-59
2021/01/29 06:46:03;;;;;;;1.00;0.80;;;10.00;99.90;;;;;;5052840;28;20399;-59
2021/01/29 06:48:34;;;;;;;1.10;0.80;;;10.00;99.90;;;;;;5033413;28;20447;-55
2021/01/29 06:51:31;;;;;;;0.90;0.60;;;10.10;99.90;;;;;;5034383;28;20833;-59
2021/01/29 06:54:07;;;;;;;0.90;0.70;;;10.10;99.90;;;;;;5034842;28;20871;-60
2021/01/29 06:56:51;;;;;;;3.73;0.70;;;10.10;99.90;;;;;;5035951;28;20448;-58
2021/01/29 06:59:46;;;;;;;0.80;0.70;;;10.00;99.90;;;;;;5035237;28;20769;-58
2021/01/29 07:02:55;;;;;;;1.00;0.60;;;10.00;99.90;;;;;;5027457;28;20788;-59
2021/01/29 07:05:29;;;;;;;0.80;0.60;;;10.00;99.90;;;;;;5054847;28;20478;-59
2021/01/29 07:08:22;;;;;;;1.00;0.60;;;10.10;99.90;;;;;;5036883;28;20550;-58
2021/01/29 07:11:22;;;;;;;1.00;0.60;;;10.00;99.90;;;;;;5024761;28;20470;-60
2021/01/29 07:14:25;;;;;;;0.80;0.50;;;10.10;99.90;;;;;;5029934;28;20419;-59
2021/01/29 07:17:10;;;;;;;1.33;0.60;;;10.00;99.90;;;;;;5029789;28;20830;-58
2021/01/29 07:20:06;;;;;;;1.73;0.70;;;10.00;99.90;;;;;;5032980;28;20471;-56
2021/01/29 07:22:32;;;;;;;0.70;0.53;;;9.90;99.90;;;;;;5034646;28;20472;-60
2021/01/29 07:25:24;;;;;;;0.93;0.50;;;10.10;99.90;;;;;;5020073;28;20905;-58
2021/01/29 07:28:32;;;;;;;0.70;0.53;;;10.10;99.90;;;;;;5038563;28;20157;-59
2021/01/29 07:31:18;;;;;;;2.97;0.60;;;10.20;99.90;;;;;;5009433;28;20465;-60
2021/01/29 07:33:56;;;;;;;1.53;0.60;;;10.20;99.90;;;;;;5037775;28;20493;-60
2021/01/29 07:36:57;;;;;;;0.80;0.60;;;10.30;99.90;;;;;;5037711;28;20483;-60
2021/01/29 07:39:56;;;;;;;2.33;0.70;;;10.40;99.90;;;;;;5024348;28;20429;-56
2021/01/29 07:42:46;;;;;;;0.63;0.60;;;10.50;99.90;;;;;;5037700;28;20706;-59
2021/01/29 07:45:39;;;;;;;0.73;0.53;;;10.50;99.90;;;;;;5038046;28;20476;-56
2021/01/29 07:48:29;;;;;;;0.80;0.60;;;10.50;99.90;;;;;;5037370;28;20822;-59
2021/01/29 07:51:28;;;;;;;0.80;0.60;;;10.50;99.90;;;;;;5038289;28;20472;-58
2021/01/29 07:54:37;;;;;;;1.00;0.60;;;10.50;99.90;;;;;;5007365;28;20828;-58
2021/01/29 07:57:47;;;;;;;1.50;0.70;;;10.60;99.90;;;;;;4994087;28;20421;-58
2021/01/29 08:00:32;;;;;;;2.63;0.90;;;10.60;99.90;;;;;;5037946;28;20819;-60
2021/01/29 08:03:31;;;;;;;1.37;1.10;;;10.50;99.90;;;;;;5037244;28;20409;-60
2021/01/29 08:06:18;;;;;;;0.70;0.60;;;10.60;99.90;;;;;;5037965;28;20398;-58
2021/01/29 08:09:09;;;;;;;1.03;0.67;;;10.60;99.90;;;;;;5038963;28;20424;-57
2021/01/29 08:11:39;;;;;;;1.20;0.90;;;10.70;99.90;;;;;;5042720;28;20425;-58
2021/01/29 08:14:33;;;;;;;1.93;0.50;;;10.70;99.90;;;;;;5043513;28;20378;-59
2021/01/29 08:17:26;;;;;;;1.43;0.77;;;10.70;99.90;;;;;;5044254;28;20375;-60
2021/01/29 08:20:15;;;;;;;1.23;0.70;;;10.80;99.90;;;;;;5036822;28;20438;-58
2021/01/29 08:23:03;;;;;;;2.83;0.63;;;10.80;99.90;;;;;;5036729;28;20418;-59
2021/01/29 08:26:06;;;;;;;1.00;0.50;;;10.80;99.90;;;;;;5037471;28;20391;-59
2021/01/29 08:28:52;;;;;;;4.50;0.60;;;10.80;99.90;;;;;;5019700;28;20446;-59
2021/01/29 08:31:52;;;;;;;0.70;0.50;;;10.90;99.90;;;;;;5036887;28;20464;-59
2021/01/29 08:34:40;;;;;;;0.80;0.63;;;10.90;99.90;;;;;;5035578;28;20477;-60
2021/01/29 08:37:32;;;;;;;1.57;0.70;;;11.00;99.90;;;;;;5036592;28;20777;-58
2021/01/29 08:40:24;;;;;;;0.70;0.60;;;11.00;99.90;;;;;;5037074;28;20530;-57
2021/01/29 08:43:31;;;;;;;0.93;0.73;;;11.00;99.90;;;;;;5036230;28;20389;-60
2021/01/29 08:46:30;;;;;;;2.60;0.80;;;10.90;99.90;;;;;;5019391;28;20432;-59
2021/01/29 08:49:14;;;;;;;1.30;0.80;;;11.00;99.90;;;;;;5005462;28;20538;-60
2021/01/29 08:52:07;;;;;;;1.63;0.90;;;10.90;99.90;;;;;;5036491;28;20426;-60
2021/01/29 08:55:14;;;;;;;1.20;0.70;;;10.80;99.90;;;;;;5036001;28;20388;-60
2021/01/29 08:57:55;;;;;;;0.70;0.60;;;10.80;99.90;;;;;;5025201;28;20405;-60
2021/01/29 09:00:29;;;;;;;1.00;0.80;;;10.80;99.90;;;;;;5036309;28;20399;-60
2021/01/29 09:03:11;;;;;;;1.57;0.70;;;10.70;99.90;;;;;;5035641;28;20528;-57
2021/01/29 09:05:41;;;;;;;1.27;0.80;;;10.70;99.90;;;;;;5036034;28;20382;-58
2021/01/29 09:08:08;;;;;;;2.80;1.07;;;10.80;99.90;;;;;;5036205;28;20412;-57
2021/01/29 09:10:49;;;;;;;2.10;0.70;;;10.80;99.90;;;;;;5018195;28;20507;-58
2021/01/29 09:13:19;;;;;;;2.63;0.90;;;11.00;99.90;;;;;;5036274;28;20380;-58
2021/01/29 09:15:57;;;;;;;3.33;0.80;;;11.10;99.90;;;;;;5017792;28;20410;-59
2021/01/29 09:18:40;;;;;;;2.17;1.00;;;11.30;99.90;;;;;;5035189;28;20396;-60
2021/01/29 09:21:15;;;;;;;1.20;1.00;;;11.30;99.90;;;;;;5034952;28;20503;-60
2021/01/29 09:23:54;;;;;;;1.47;1.00;;;11.30;99.90;;;;;;5035225;28;20404;-58
2021/01/29 09:26:31;;;;;;;1.10;0.70;;;11.10;99.90;;;;;;5036926;28;20756;-59
2021/01/29 09:29:23;;;;;;;1.83;0.93;;;11.10;99.90;;;;;;5016198;28;20406;-58
2021/01/29 09:31:58;;;;;;;1.50;0.90;;;11.30;99.90;;;;;;5016586;28;20444;-59
2021/01/29 09:34:33;;;;;;;1.50;1.10;;;11.20;99.90;;;;;;5015290;28;20396;-59
2021/01/29 09:37:05;;;;;;;1.47;0.97;;;11.30;99.90;;;;;;5015139;28;20474;-59
2021/01/29 09:39:37;;;;;;;3.77;1.30;;;11.40;99.90;;;;;;5029535;28;20479;-60
2021/01/29 09:42:09;;;;;;;1.67;0.90;;;11.40;99.90;;;;;;5035784;28;20395;-60
2021/01/29 09:44:47;;;;;;;1.90;1.13;;;11.50;99.90;;;;;;5036256;28;20386;-59
2021/01/29 09:47:19;;;;;;;1.87;0.87;;;11.50;99.90;;;;;;5035223;28;20489;-60
2021/01/29 09:49:46;;;;;;;1.17;0.80;;;11.60;99.90;;;;;;5035345;28;20816;-59
2021/01/29 09:52:27;;;;;;;6.57;1.43;;;11.80;99.90;;;;;;5035780;28;20406;-59
2021/01/29 09:55:31;;;;;;;2.10;1.33;;;11.90;99.90;;;;;;5036133;28;20393;-60
2021/01/29 09:58:23;;;;;;;2.70;1.27;;;12.00;99.90;;;;;;4955191;29;20451;-59
2021/01/29 10:01:08;;;;;;;1.77;1.20;;;12.20;99.90;;;;;;4955686;29;20425;-59
2021/01/29 10:03:57;;;;;;;3.40;1.20;;;12.30;99.90;;;;;;5015932;28;20408;-59
2021/01/29 10:07:06;;;;;;;1.33;0.90;;;12.20;99.90;;;;;;4996237;28;20476;-60
2021/01/29 10:09:39;;;;;;;2.60;1.20;;;12.10;99.90;;;;;;5030712;28;20484;-57
2021/01/29 10:12:22;;;;;;;3.10;1.10;;;12.20;99.90;;;;;;5035541;28;20375;-60
2021/01/29 10:15:01;;;;;;;5.10;1.40;;;12.20;99.90;;;;;;5035108;28;20410;-60
2021/01/29 10:17:33;;;;;;;4.67;2.13;;;12.00;99.90;;;;;;5034441;28;20433;-58
2021/01/29 10:20:04;;;;;;;2.00;1.40;;;11.90;99.90;;;;;;5034412;28;20434;-58
2021/01/29 10:22:56;;;;;;;3.40;1.80;;;11.80;99.90;;;;;;5034536;28;20394;-57
2021/01/29 10:25:34;;;;;;;5.50;2.37;;;11.60;99.90;;;;;;5034408;28;20392;-59
2021/01/29 10:28:19;;;;;;;2.13;1.20;;;11.50;99.90;;;;;;5035180;28;20397;-60
2021/01/29 10:30:50;;;;;;;2.03;1.27;;;11.30;99.90;;;;;;5034331;28;20480;-60
2021/01/29 10:33:24;;;;;;;3.73;1.40;;;11.30;99.90;;;;;;5034468;28;20433;-59
2021/01/29 10:36:02;;;;;;;7.67;1.87;;;11.40;99.90;;;;;;5034982;28;20544;-58
2021/01/29 10:38:36;;;;;;;1.70;1.17;;;11.40;99.90;;;;;;5034776;28;20475;-60
2021/01/29 10:41:35;;;;;;;5.23;1.40;;;11.30;99.90;;;;;;5034635;28;20424;-60
2021/01/29 10:44:10;;;;;;;3.87;1.50;;;11.20;99.90;;;;;;5035029;28;20976;-60
2021/01/29 10:47:11;;;;;;;4.37;1.23;;;11.30;99.90;;;;;;5034720;28;20409;-59
2021/01/29 10:49:57;;;;;;;2.50;1.33;;;11.50;99.90;;;;;;5008478;28;20465;-59
2021/01/29 10:52:56;;;;;;;5.50;1.90;;;11.50;99.90;;;;;;5034001;28;20394;-59
2021/01/29 10:55:29;;;;;;;4.67;1.37;;;11.50;99.90;;;;;;5034089;28;20395;-60
2021/01/29 10:58:16;;;;;;;3.10;1.70;;;11.70;99.90;;;;;;5033828;28;20799;-59
2021/01/29 11:00:42;;;;;;;3.60;1.43;;;12.00;99.90;;;;;;5038280;28;20795;-60
2021/01/29 11:03:14;;;;;;;3.30;1.57;;;12.10;99.90;;;;;;5038697;28;20768;-58
2021/01/29 11:05:43;;;;;;;6.13;2.00;;;12.10;99.90;;;;;;5037997;28;20389;-59
2021/01/29 11:08:21;;;;;;;5.87;1.80;;;12.20;99.90;;;;;;5038334;28;20425;-59
2021/01/29 11:11:07;;;;;;;5.30;2.03;;;12.10;99.90;;;;;;5038336;28;21029;-60
2021/01/29 11:14:03;;;;;;;3.10;1.53;;;12.20;99.90;;;;;;5038080;28;20863;-59
2021/01/29 11:16:49;;;;;;;4.37;1.77;;;12.10;99.90;;;;;;5038362;28;20489;-59
2021/01/29 11:19:23;;;;;;;3.30;1.67;;;12.00;99.90;;;;;;5037675;28;20537;-60
2021/01/29 11:22:07;;;;;;;4.20;2.33;;;12.20;99.90;;;;;;5038359;28;20422;-60
2021/01/29 11:24:55;;;;;;;5.73;1.83;;;12.20;99.90;;;;;;5040965;28;20484;-59
2021/01/29 11:27:56;;;;;;;3.20;1.67;;;12.20;99.90;;;;;;5009515;28;20504;-60
2021/01/29 11:30:28;;;;;;;3.80;1.70;;;12.40;99.90;;;;;;5037519;28;20852;-59
2021/01/29 11:32:58;;;;;;;6.90;1.87;;;12.20;99.90;;;;;;5037915;28;20970;-59
2021/01/29 11:35:40;;;;;;;2.20;1.40;;;12.20;99.90;;;;;;5036853;28;20407;-59
2021/01/29 11:38:14;;;;;;;6.27;1.70;;;12.20;99.90;;;;;;5037313;28;20405;-56
2021/01/29 11:40:56;;;;;;;5.67;1.50;;;12.40;99.90;;;;;;5037045;28;20425;-61
2021/01/29 11:44:04;;;;;;;4.67;1.33;;;12.40;99.90;;;;;;5037000;28;20386;-60
2021/01/29 11:46:49;;;;;;;6.37;2.03;;;12.30;99.90;;;;;;5019707;28;20504;-60
2021/01/29 11:49:23;;;;;;;4.97;1.77;;;12.20;99.90;;;;;;5036491;28;20387;-60
2021/01/29 11:51:55;;;;;;;11.27;3.60;;;12.20;99.90;;;;;;5017169;28;20410;-60
2021/01/29 11:54:50;;;;;;;4.60;2.10;;;12.20;99.90;;;;;;5017568;28;20433;-60
2021/01/29 11:57:35;;;;;;;4.30;1.43;;;12.50;99.90;;;;;;5017671;28;20380;-60
2021/01/29 12:00:22;;;;;;;3.33;1.33;;;12.40;99.90;;;;;;5016797;28;20581;-61
2021/01/29 12:03:02;;;;;;;2.70;1.43;;;13.20;99.90;;;;;;5017314;28;20821;-56
2021/01/29 12:05:45;;;;;;;3.73;1.40;;;13.50;99.90;;;;;;5016720;28;20403;-60
2021/01/29 12:08:31;;;;;;;2.93;1.00;;;14.10;99.90;;;;;;5017372;28;20766;-58
2021/01/29 12:11:27;;;;;;;4.30;1.90;;;14.30;99.90;;;;;;5017221;28;20489;-59
2021/01/29 12:14:14;;;;;;;4.40;1.47;;;14.30;99.90;;;;;;5016481;28;20393;-62
2021/01/29 12:16:42;;;;;;;3.63;1.40;;;13.50;99.90;;;;;;5016638;28;20379;-60
2021/01/29 12:19:13;;;;;;;2.50;1.10;;;13.40;99.90;;;;;;5015975;28;20492;-62
2021/01/29 12:21:49;;;;;;;6.83;2.07;;;13.20;99.90;;;;;;5035190;28;20810;-60
2021/01/29 12:24:39;;;;;;;4.20;1.40;;;12.80;99.90;;;;;;5036132;28;20773;-62
2021/01/29 12:27:23;;;;;;;8.43;1.50;;;12.70;99.90;;;;;;5035789;28;20416;-62
2021/01/29 12:30:05;;;;;;;3.30;1.53;;;12.60;99.90;;;;;;5035306;28;20511;-62
2021/01/29 12:32:48;;;;;;;7.43;1.47;;;12.80;99.90;;;;;;5035594;28;20390;-59
2021/01/29 12:35:43;;;;;;;4.80;1.30;;;12.70;99.90;;;;;;5034875;28;20439;-62
2021/01/29 12:38:30;;;;;;;4.63;1.30;;;12.70;99.90;;;;;;5032867;28;20421;-59
2021/01/29 12:41:24;;;;;;;1.70;1.13;;;12.50;99.90;;;;;;5035600;28;20425;-60
2021/01/29 12:44:07;;;;;;;4.53;1.50;;;12.30;99.90;;;;;;5035202;28;21031;-61
2021/01/29 12:46:46;;;;;;;4.60;1.60;;;12.40;99.90;;;;;;5035396;28;20402;-62
2021/01/29 12:49:39;;;;;;;2.33;1.40;;;12.50;99.90;;;;;;5017624;28;20514;-59
2021/01/29 12:52:15;;;;;;;6.63;1.60;;;12.30;99.90;;;;;;5035304;28;20398;-62
2021/01/29 12:54:50;;;;;;;7.27;2.03;;;12.20;99.90;;;;;;5035556;28;20880;-62
2021/01/29 12:57:17;;;;;;;3.07;1.37;;;12.20;99.90;;;;;;5035501;28;20732;-62
2021/01/29 12:59:46;;;;;;;5.27;2.00;;;12.10;99.90;;;;;;5029698;28;20441;-62
2021/01/29 13:02:27;;;;;;;4.90;1.93;;;12.00;99.90;;;;;;5021938;28;20417;-61
2021/01/29 13:05:06;;;;;;;4.17;1.67;;;11.90;99.90;;;;;;5016106;28;20391;-60
2021/01/29 13:07:32;;;;;;;3.03;1.30;;;12.00;99.90;;;;;;5017051;28;20458;-61
2021/01/29 13:10:30;;;;;;;5.40;1.27;;;12.20;99.90;;;;;;5016761;28;20464;-60
2021/01/29 13:13:15;;;;;;;2.10;1.23;;;12.20;99.90;;;;;;4999421;28;20426;-61
2021/01/29 13:15:50;;;;;;;3.43;1.43;;;12.10;99.90;;;;;;5014662;28;20388;-63
2021/01/29 13:18:50;;;;;;;2.90;0.90;;;12.20;99.90;;;;;;5015119;28;20396;-63
2021/01/29 13:21:47;;;;;;;4.00;1.20;;;12.20;99.90;;;;;;5029497;28;20469;-63
2021/01/29 13:24:27;;;;;;;1.80;0.90;;;12.50;99.90;;;;;;5046295;28;20920;-63
2021/01/29 13:26:54;;;;;;;1.40;0.87;;;12.60;99.90;;;;;;5054646;28;20808;-63
2021/01/29 13:29:31;;;;;;;1.50;0.70;;;12.50;99.90;;;;;;5056821;28;20408;-61
2021/01/29 13:32:20;;;;;;;1.20;0.60;;;12.40;99.90;;;;;;5060791;28;20387;-59
2021/01/29 13:34:46;;;;;;;0.90;0.83;;;12.20;99.90;;;;;;5061378;28;20378;-61
2021/01/29 13:37:29;;;;;;;0.80;0.60;;;12.00;99.90;;;;;;5061913;28;20459;-61
2021/01/29 13:40:05;;;;;;;1.20;0.80;;;12.00;99.90;;;;;;5046938;28;20463;-60
2021/01/29 13:42:33;;;;;;;3.60;1.10;;;12.10;99.90;;;;;;5037485;28;20498;-62
2021/01/29 13:45:01;;;;;;;2.50;0.70;;;12.40;99.90;;;;;;5035298;28;20399;-62
2021/01/29 13:47:30;;;;;;;2.70;0.87;;;12.40;99.90;;;;;;5035673;28;20497;-61
2021/01/29 13:50:12;;;;;;;1.90;0.80;;;12.40;99.90;;;;;;5034799;28;20558;-60
2021/01/29 13:52:57;;;;;;;2.70;1.40;;;12.50;99.90;;;;;;5035231;28;20752;-61
2021/01/29 13:55:46;;;;;;;2.27;0.90;;;12.60;99.90;;;;;;5034614;28;20422;-61
2021/01/29 13:58:27;;;;;;;1.77;0.70;;;12.40;99.90;;;;;;5035546;28;20757;-60
2021/01/29 14:01:09;;;;;;;3.03;0.80;;;12.30;99.90;;;;;;5035060;28;20512;-61